sensor_id;sensor_type;location;lat;lon;timestamp;P1;durP1;ratioP1;P2;durP2;ratioP2
70049;SDS011;57391;51.306;22.680;2023-03-16T00:01:26;12.20;;;5.50;;
70049;SDS011;57391;51.306;22.680;2023-03-16T00:03:53;14.20;;;6.70;;
70049;SDS011;57391;51.306;22.680;2023-03-16T00:06:20;14.00;;;6.60;;
70049;SDS011;57391;51.306;22.680;2023-03-16T00:08:47;15.60;;;6.40;;
70049;SDS011;57391;51.306;22.680;2023-03-16T00:11:15;15.20;;;6.50;;
70049;SDS011;57391;51.306;22.680;2023-03-16T00:13:42;14.70;;;6.50;;
70049;SDS011;57391;51.306;22.680;2023-03-16T00:16:09;15.40;;;6.60;;
70049;SDS011;57391;51.306;22.680;2023-03-16T00:18:42;17.50;;;6.50;;
70049;SDS011;57391;51.306;22.680;2023-03-16T00:21:10;14.20;;;6.40;;
70049;SDS011;57391;51.306;22.680;2023-03-16T00:23:50;15.60;;;6.10;;
70049;SDS011;57391;51.306;22.680;2023-03-16T00:26:23;16.10;;;5.80;;
70049;SDS011;57391;51.306;22.680;2023-03-16T00:28:51;14.20;;;6.70;;
70049;SDS011;57391;51.306;22.680;2023-03-16T00:31:19;14.50;;;6.40;;
70049;SDS011;57391;51.306;22.680;2023-03-16T00:33:50;15.60;;;6.60;;
70049;SDS011;57391;51.306;22.680;2023-03-16T00:36:17;15.80;;;6.20;;
70049;SDS011;57391;51.306;22.680;2023-03-16T00:38:44;14.70;;;6.80;;
70049;SDS011;57391;51.306;22.680;2023-03-16T00:41:13;14.90;;;6.40;;
70049;SDS011;57391;51.306;22.680;2023-03-16T00:43:41;16.70;;;6.50;;
70049;SDS011;57391;51.306;22.680;2023-03-16T00:46:13;14.60;;;6.90;;
70049;SDS011;57391;51.306;22.680;2023-03-16T00:48:45;18.20;;;7.50;;
70049;SDS011;57391;51.306;22.680;2023-03-16T00:51:15;15.60;;;6.60;;
70049;SDS011;57391;51.306;22.680;2023-03-16T00:53:45;17.00;;;6.90;;
70049;SDS011;57391;51.306;22.680;2023-03-16T00:56:14;17.10;;;7.20;;
70049;SDS011;57391;51.306;22.680;2023-03-16T00:58:42;15.10;;;6.50;;
70049;SDS011;57391;51.306;22.680;2023-03-16T01:01:19;15.70;;;5.90;;
70049;SDS011;57391;51.306;22.680;2023-03-16T01:03:46;17.90;;;6.60;;
70049;SDS011;57391;51.306;22.680;2023-03-16T01:06:15;16.60;;;6.60;;
70049;SDS011;57391;51.306;22.680;2023-03-16T01:08:44;17.00;;;6.70;;
70049;SDS011;57391;51.306;22.680;2023-03-16T01:11:16;17.80;;;7.40;;
70049;SDS011;57391;51.306;22.680;2023-03-16T01:13:47;15.90;;;7.10;;
70049;SDS011;57391;51.306;22.680;2023-03-16T01:16:16;19.30;;;6.20;;
70049;SDS011;57391;51.306;22.680;2023-03-16T01:18:44;15.00;;;6.10;;
70049;SDS011;57391;51.306;22.680;2023-03-16T01:21:13;14.30;;;6.30;;
70049;SDS011;57391;51.306;22.680;2023-03-16T01:23:41;17.40;;;6.20;;
70049;SDS011;57391;51.306;22.680;2023-03-16T01:26:10;14.70;;;6.00;;
70049;SDS011;57391;51.306;22.680;2023-03-16T01:28:39;15.80;;;6.70;;
70049;SDS011;57391;51.306;22.680;2023-03-16T01:31:09;17.90;;;7.00;;
70049;SDS011;57391;51.306;22.680;2023-03-16T01:33:38;20.00;;;6.90;;
70049;SDS011;57391;51.306;22.680;2023-03-16T01:36:11;16.80;;;7.30;;
70049;SDS011;57391;51.306;22.680;2023-03-16T01:38:49;17.50;;;7.30;;
70049;SDS011;57391;51.306;22.680;2023-03-16T01:41:17;17.00;;;6.70;;
70049;SDS011;57391;51.306;22.680;2023-03-16T01:43:44;17.40;;;7.40;;
70049;SDS011;57391;51.306;22.680;2023-03-16T01:46:21;14.80;;;6.90;;
70049;SDS011;57391;51.306;22.680;2023-03-16T01:48:59;17.50;;;6.10;;
70049;SDS011;57391;51.306;22.680;2023-03-16T01:54:30;18.70;;;6.70;;
70049;SDS011;57391;51.306;22.680;2023-03-16T02:00:04;18.20;;;7.30;;
70049;SDS011;57391;51.306;22.680;2023-03-16T02:02:42;19.90;;;7.90;;
70049;SDS011;57391;51.306;22.680;2023-03-16T02:05:23;14.70;;;7.10;;
70049;SDS011;57391;51.306;22.680;2023-03-16T02:08:00;14.40;;;6.30;;
70049;SDS011;57391;51.306;22.680;2023-03-16T02:10:29;18.00;;;6.90;;
70049;SDS011;57391;51.306;22.680;2023-03-16T02:12:57;19.40;;;8.00;;
70049;SDS011;57391;51.306;22.680;2023-03-16T02:15:25;20.60;;;8.70;;
70049;SDS011;57391;51.306;22.680;2023-03-16T02:17:53;19.30;;;8.20;;
70049;SDS011;57391;51.306;22.680;2023-03-16T02:23:18;17.60;;;6.80;;
70049;SDS011;57391;51.306;22.680;2023-03-16T02:26:16;15.70;;;7.10;;
70049;SDS011;57391;51.306;22.680;2023-03-16T02:29:22;16.30;;;7.30;;
70049;SDS011;57391;51.306;22.680;2023-03-16T02:31:55;19.20;;;7.80;;
70049;SDS011;57391;51.306;22.680;2023-03-16T02:34:23;18.40;;;7.00;;
70049;SDS011;57391;51.306;22.680;2023-03-16T02:36:51;18.70;;;8.00;;
70049;SDS011;57391;51.306;22.680;2023-03-16T02:39:23;15.50;;;7.50;;
70049;SDS011;57391;51.306;22.680;2023-03-16T02:41:49;22.60;;;9.10;;
70049;SDS011;57391;51.306;22.680;2023-03-16T02:44:22;18.90;;;8.10;;
70049;SDS011;57391;51.306;22.680;2023-03-16T02:47:02;20.50;;;8.20;;
70049;SDS011;57391;51.306;22.680;2023-03-16T02:49:41;20.10;;;8.10;;
70049;SDS011;57391;51.306;22.680;2023-03-16T02:52:10;18.50;;;7.40;;
70049;SDS011;57391;51.306;22.680;2023-03-16T02:54:38;18.10;;;7.50;;
70049;SDS011;57391;51.306;22.680;2023-03-16T02:57:05;17.70;;;7.50;;
70049;SDS011;57391;51.306;22.680;2023-03-16T02:59:32;18.60;;;7.40;;
70049;SDS011;57391;51.306;22.680;2023-03-16T03:01:59;19.60;;;8.10;;
70049;SDS011;57391;51.306;22.680;2023-03-16T03:04:27;18.20;;;7.80;;
70049;SDS011;57391;51.306;22.680;2023-03-16T03:06:54;18.70;;;7.70;;
70049;SDS011;57391;51.306;22.680;2023-03-16T03:09:24;15.90;;;6.90;;
70049;SDS011;57391;51.306;22.680;2023-03-16T03:11:52;19.30;;;8.50;;
70049;SDS011;57391;51.306;22.680;2023-03-16T03:14:20;17.20;;;7.80;;
70049;SDS011;57391;51.306;22.680;2023-03-16T03:16:51;18.50;;;7.20;;
70049;SDS011;57391;51.306;22.680;2023-03-16T03:19:18;17.40;;;7.70;;
70049;SDS011;57391;51.306;22.680;2023-03-16T03:21:45;19.30;;;8.30;;
70049;SDS011;57391;51.306;22.680;2023-03-16T03:24:12;22.20;;;7.60;;
70049;SDS011;57391;51.306;22.680;2023-03-16T03:26:39;16.70;;;6.70;;
70049;SDS011;57391;51.306;22.680;2023-03-16T03:29:09;21.80;;;8.10;;
70049;SDS011;57391;51.306;22.680;2023-03-16T03:31:36;21.20;;;8.50;;
70049;SDS011;57391;51.306;22.680;2023-03-16T03:34:04;15.50;;;7.50;;
70049;SDS011;57391;51.306;22.680;2023-03-16T03:36:33;17.10;;;8.10;;
70049;SDS011;57391;51.306;22.680;2023-03-16T03:39:01;18.70;;;7.60;;
70049;SDS011;57391;51.306;22.680;2023-03-16T03:41:31;18.60;;;7.00;;
70049;SDS011;57391;51.306;22.680;2023-03-16T03:43:59;18.20;;;7.90;;
70049;SDS011;57391;51.306;22.680;2023-03-16T03:46:27;21.30;;;8.90;;
70049;SDS011;57391;51.306;22.680;2023-03-16T03:48:53;23.50;;;9.50;;
70049;SDS011;57391;51.306;22.680;2023-03-16T03:51:20;20.40;;;8.40;;
70049;SDS011;57391;51.306;22.680;2023-03-16T03:54:01;21.80;;;8.60;;
70049;SDS011;57391;51.306;22.680;2023-03-16T03:56:40;19.30;;;8.60;;
70049;SDS011;57391;51.306;22.680;2023-03-16T03:59:11;20.00;;;8.60;;
70049;SDS011;57391;51.306;22.680;2023-03-16T04:02:10;18.60;;;8.30;;
70049;SDS011;57391;51.306;22.680;2023-03-16T04:04:43;23.70;;;9.50;;
70049;SDS011;57391;51.306;22.680;2023-03-16T04:07:11;21.30;;;10.00;;
70049;SDS011;57391;51.306;22.680;2023-03-16T04:09:38;23.20;;;10.60;;
70049;SDS011;57391;51.306;22.680;2023-03-16T04:12:10;25.30;;;11.10;;
70049;SDS011;57391;51.306;22.680;2023-03-16T04:14:37;22.90;;;10.80;;
70049;SDS011;57391;51.306;22.680;2023-03-16T04:17:06;21.00;;;10.80;;
70049;SDS011;57391;51.306;22.680;2023-03-16T04:19:34;25.60;;;12.40;;
70049;SDS011;57391;51.306;22.680;2023-03-16T04:22:02;24.80;;;12.50;;
70049;SDS011;57391;51.306;22.680;2023-03-16T04:24:30;22.50;;;12.30;;
70049;SDS011;57391;51.306;22.680;2023-03-16T04:27:00;26.20;;;12.70;;
70049;SDS011;57391;51.306;22.680;2023-03-16T04:29:28;22.60;;;11.80;;
70049;SDS011;57391;51.306;22.680;2023-03-16T04:31:57;23.60;;;11.70;;
70049;SDS011;57391;51.306;22.680;2023-03-16T04:34:24;24.30;;;9.50;;
70049;SDS011;57391;51.306;22.680;2023-03-16T04:36:54;21.10;;;9.40;;
70049;SDS011;57391;51.306;22.680;2023-03-16T04:39:21;18.40;;;7.90;;
70049;SDS011;57391;51.306;22.680;2023-03-16T04:41:49;21.10;;;8.20;;
70049;SDS011;57391;51.306;22.680;2023-03-16T04:44:20;18.70;;;8.20;;
70049;SDS011;57391;51.306;22.680;2023-03-16T04:46:49;20.50;;;8.00;;
70049;SDS011;57391;51.306;22.680;2023-03-16T04:49:17;25.10;;;8.70;;
70049;SDS011;57391;51.306;22.680;2023-03-16T04:51:45;22.70;;;9.10;;
70049;SDS011;57391;51.306;22.680;2023-03-16T04:54:17;21.70;;;9.00;;
70049;SDS011;57391;51.306;22.680;2023-03-16T04:56:44;20.70;;;8.60;;
70049;SDS011;57391;51.306;22.680;2023-03-16T04:59:33;20.40;;;8.50;;
70049;SDS011;57391;51.306;22.680;2023-03-16T05:02:05;22.70;;;9.10;;
70049;SDS011;57391;51.306;22.680;2023-03-16T05:04:33;21.30;;;9.50;;
70049;SDS011;57391;51.306;22.680;2023-03-16T05:07:00;23.00;;;9.80;;
70049;SDS011;57391;51.306;22.680;2023-03-16T05:09:30;20.40;;;8.80;;
70049;SDS011;57391;51.306;22.680;2023-03-16T05:11:58;24.50;;;9.60;;
70049;SDS011;57391;51.306;22.680;2023-03-16T05:14:25;21.70;;;9.00;;
70049;SDS011;57391;51.306;22.680;2023-03-16T05:17:01;20.80;;;9.50;;
70049;SDS011;57391;51.306;22.680;2023-03-16T05:19:31;20.40;;;8.20;;
70049;SDS011;57391;51.306;22.680;2023-03-16T05:21:59;23.60;;;9.00;;
70049;SDS011;57391;51.306;22.680;2023-03-16T05:24:27;21.70;;;9.10;;
70049;SDS011;57391;51.306;22.680;2023-03-16T05:26:54;18.30;;;8.50;;
70049;SDS011;57391;51.306;22.680;2023-03-16T05:29:21;22.70;;;7.20;;
70049;SDS011;57391;51.306;22.680;2023-03-16T05:31:49;19.10;;;8.40;;
70049;SDS011;57391;51.306;22.680;2023-03-16T05:34:18;22.20;;;9.80;;
70049;SDS011;57391;51.306;22.680;2023-03-16T05:36:46;22.70;;;10.10;;
70049;SDS011;57391;51.306;22.680;2023-03-16T05:39:15;19.50;;;10.60;;
70049;SDS011;57391;51.306;22.680;2023-03-16T05:41:45;25.00;;;10.60;;
70049;SDS011;57391;51.306;22.680;2023-03-16T05:44:41;22.60;;;9.40;;
70049;SDS011;57391;51.306;22.680;2023-03-16T05:47:33;26.00;;;10.20;;
70049;SDS011;57391;51.306;22.680;2023-03-16T05:50:04;22.50;;;10.60;;
70049;SDS011;57391;51.306;22.680;2023-03-16T05:52:36;34.40;;;13.40;;
70049;SDS011;57391;51.306;22.680;2023-03-16T05:55:11;37.30;;;14.90;;
70049;SDS011;57391;51.306;22.680;2023-03-16T05:57:40;31.80;;;16.10;;
70049;SDS011;57391;51.306;22.680;2023-03-16T06:00:11;33.10;;;14.30;;
70049;SDS011;57391;51.306;22.680;2023-03-16T06:02:48;24.90;;;14.10;;
70049;SDS011;57391;51.306;22.680;2023-03-16T06:05:20;24.70;;;12.60;;
70049;SDS011;57391;51.306;22.680;2023-03-16T06:07:48;24.80;;;12.20;;
70049;SDS011;57391;51.306;22.680;2023-03-16T06:10:16;21.00;;;11.90;;
70049;SDS011;57391;51.306;22.680;2023-03-16T06:12:44;22.70;;;11.30;;
70049;SDS011;57391;51.306;22.680;2023-03-16T06:15:12;22.00;;;12.40;;
70049;SDS011;57391;51.306;22.680;2023-03-16T06:17:40;22.40;;;11.40;;
70049;SDS011;57391;51.306;22.680;2023-03-16T06:20:11;23.50;;;11.60;;
70049;SDS011;57391;51.306;22.680;2023-03-16T06:22:40;26.60;;;13.00;;
70049;SDS011;57391;51.306;22.680;2023-03-16T06:25:10;27.90;;;14.00;;
70049;SDS011;57391;51.306;22.680;2023-03-16T06:27:39;29.60;;;13.60;;
70049;SDS011;57391;51.306;22.680;2023-03-16T06:30:13;26.40;;;13.00;;
70049;SDS011;57391;51.306;22.680;2023-03-16T06:32:41;23.70;;;13.00;;
70049;SDS011;57391;51.306;22.680;2023-03-16T06:35:55;21.80;;;10.20;;
70049;SDS011;57391;51.306;22.680;2023-03-16T06:38:41;22.40;;;9.20;;
70049;SDS011;57391;51.306;22.680;2023-03-16T06:41:15;24.30;;;9.80;;
70049;SDS011;57391;51.306;22.680;2023-03-16T06:43:44;24.00;;;10.90;;
70049;SDS011;57391;51.306;22.680;2023-03-16T06:46:12;22.90;;;11.40;;
70049;SDS011;57391;51.306;22.680;2023-03-16T06:48:39;20.80;;;10.30;;
70049;SDS011;57391;51.306;22.680;2023-03-16T06:51:08;21.60;;;9.70;;
70049;SDS011;57391;51.306;22.680;2023-03-16T06:53:36;23.50;;;11.20;;
70049;SDS011;57391;51.306;22.680;2023-03-16T06:56:03;22.60;;;11.10;;
70049;SDS011;57391;51.306;22.680;2023-03-16T06:58:33;18.10;;;9.10;;
70049;SDS011;57391;51.306;22.680;2023-03-16T07:01:02;20.20;;;10.50;;
70049;SDS011;57391;51.306;22.680;2023-03-16T07:03:30;19.50;;;9.30;;
70049;SDS011;57391;51.306;22.680;2023-03-16T07:06:16;18.00;;;9.10;;
70049;SDS011;57391;51.306;22.680;2023-03-16T07:08:46;20.40;;;8.50;;
70049;SDS011;57391;51.306;22.680;2023-03-16T07:11:13;18.30;;;8.20;;
70049;SDS011;57391;51.306;22.680;2023-03-16T07:13:41;21.50;;;8.60;;
70049;SDS011;57391;51.306;22.680;2023-03-16T07:16:10;20.50;;;9.50;;
70049;SDS011;57391;51.306;22.680;2023-03-16T07:18:43;21.40;;;9.40;;
70049;SDS011;57391;51.306;22.680;2023-03-16T07:21:12;21.50;;;9.50;;
70049;SDS011;57391;51.306;22.680;2023-03-16T07:23:40;16.00;;;8.20;;
70049;SDS011;57391;51.306;22.680;2023-03-16T07:26:08;17.80;;;7.80;;
70049;SDS011;57391;51.306;22.680;2023-03-16T07:28:48;16.80;;;7.30;;
70049;SDS011;57391;51.306;22.680;2023-03-16T07:31:17;17.10;;;6.50;;
70049;SDS011;57391;51.306;22.680;2023-03-16T07:33:48;20.10;;;6.20;;
70049;SDS011;57391;51.306;22.680;2023-03-16T07:36:24;14.20;;;5.50;;
70049;SDS011;57391;51.306;22.680;2023-03-16T07:38:56;11.80;;;4.50;;
70049;SDS011;57391;51.306;22.680;2023-03-16T07:41:24;11.80;;;4.60;;
70049;SDS011;57391;51.306;22.680;2023-03-16T07:43:52;9.80;;;4.20;;
70049;SDS011;57391;51.306;22.680;2023-03-16T07:46:26;14.50;;;5.20;;
70049;SDS011;57391;51.306;22.680;2023-03-16T07:48:57;12.80;;;3.60;;
70049;SDS011;57391;51.306;22.680;2023-03-16T07:51:25;11.20;;;3.80;;
70049;SDS011;57391;51.306;22.680;2023-03-16T07:53:53;12.50;;;5.40;;
70049;SDS011;57391;51.306;22.680;2023-03-16T07:56:28;13.90;;;4.30;;
70049;SDS011;57391;51.306;22.680;2023-03-16T07:59:01;15.20;;;6.20;;
70049;SDS011;57391;51.306;22.680;2023-03-16T08:01:29;14.00;;;6.60;;
70049;SDS011;57391;51.306;22.680;2023-03-16T08:03:57;17.30;;;7.30;;
70049;SDS011;57391;51.306;22.680;2023-03-16T08:06:26;13.50;;;6.60;;
70049;SDS011;57391;51.306;22.680;2023-03-16T08:08:56;15.00;;;6.20;;
70049;SDS011;57391;51.306;22.680;2023-03-16T08:11:31;15.70;;;6.20;;
70049;SDS011;57391;51.306;22.680;2023-03-16T08:14:03;11.70;;;4.00;;
70049;SDS011;57391;51.306;22.680;2023-03-16T08:16:50;9.40;;;3.50;;
70049;SDS011;57391;51.306;22.680;2023-03-16T08:19:18;12.30;;;4.90;;
70049;SDS011;57391;51.306;22.680;2023-03-16T08:21:48;12.50;;;3.50;;
70049;SDS011;57391;51.306;22.680;2023-03-16T08:24:17;9.80;;;2.90;;
70049;SDS011;57391;51.306;22.680;2023-03-16T08:26:47;9.00;;;3.50;;
70049;SDS011;57391;51.306;22.680;2023-03-16T08:29:16;12.40;;;4.60;;
70049;SDS011;57391;51.306;22.680;2023-03-16T08:31:45;12.10;;;5.10;;
70049;SDS011;57391;51.306;22.680;2023-03-16T08:34:23;14.30;;;4.60;;
70049;SDS011;57391;51.306;22.680;2023-03-16T08:36:55;15.90;;;4.80;;
70049;SDS011;57391;51.306;22.680;2023-03-16T08:39:23;11.30;;;4.90;;
70049;SDS011;57391;51.306;22.680;2023-03-16T08:41:53;13.80;;;5.20;;
70049;SDS011;57391;51.306;22.680;2023-03-16T08:44:26;12.30;;;5.00;;
70049;SDS011;57391;51.306;22.680;2023-03-16T08:46:56;11.10;;;5.20;;
70049;SDS011;57391;51.306;22.680;2023-03-16T08:49:26;12.40;;;4.30;;
70049;SDS011;57391;51.306;22.680;2023-03-16T08:52:07;9.30;;;3.70;;
70049;SDS011;57391;51.306;22.680;2023-03-16T08:54:39;11.50;;;4.30;;
70049;SDS011;57391;51.306;22.680;2023-03-16T08:57:09;12.50;;;4.90;;
70049;SDS011;57391;51.306;22.680;2023-03-16T08:59:43;11.20;;;5.00;;
70049;SDS011;57391;51.306;22.680;2023-03-16T09:02:15;14.10;;;4.70;;
70049;SDS011;57391;51.306;22.680;2023-03-16T09:04:43;12.10;;;4.90;;
70049;SDS011;57391;51.306;22.680;2023-03-16T09:07:12;12.90;;;4.80;;
70049;SDS011;57391;51.306;22.680;2023-03-16T09:09:41;11.70;;;4.10;;
70049;SDS011;57391;51.306;22.680;2023-03-16T09:12:09;10.20;;;4.40;;
70049;SDS011;57391;51.306;22.680;2023-03-16T09:14:40;10.10;;;3.20;;
70049;SDS011;57391;51.306;22.680;2023-03-16T09:17:12;11.00;;;4.10;;
70049;SDS011;57391;51.306;22.680;2023-03-16T09:19:46;9.50;;;3.40;;
70049;SDS011;57391;51.306;22.680;2023-03-16T09:22:14;10.80;;;3.30;;
70049;SDS011;57391;51.306;22.680;2023-03-16T09:24:47;8.60;;;3.50;;
70049;SDS011;57391;51.306;22.680;2023-03-16T09:27:17;8.20;;;2.90;;
70049;SDS011;57391;51.306;22.680;2023-03-16T09:29:47;7.40;;;3.00;;
70049;SDS011;57391;51.306;22.680;2023-03-16T09:32:17;10.30;;;3.90;;
70049;SDS011;57391;51.306;22.680;2023-03-16T09:34:50;6.90;;;3.20;;
70049;SDS011;57391;51.306;22.680;2023-03-16T09:37:24;6.40;;;2.90;;
70049;SDS011;57391;51.306;22.680;2023-03-16T09:39:53;10.00;;;3.00;;
70049;SDS011;57391;51.306;22.680;2023-03-16T09:45:25;8.90;;;3.00;;
70049;SDS011;57391;51.306;22.680;2023-03-16T09:48:17;9.00;;;3.90;;
70049;SDS011;57391;51.306;22.680;2023-03-16T09:50:48;9.00;;;2.90;;
70049;SDS011;57391;51.306;22.680;2023-03-16T09:56:04;10.80;;;3.90;;
70049;SDS011;57391;51.306;22.680;2023-03-16T09:58:35;10.10;;;3.80;;
70049;SDS011;57391;51.306;22.680;2023-03-16T10:04:15;9.60;;;4.10;;
70049;SDS011;57391;51.306;22.680;2023-03-16T10:07:21;8.80;;;3.90;;
70049;SDS011;57391;51.306;22.680;2023-03-16T10:10:42;10.80;;;4.00;;
70049;SDS011;57391;51.306;22.680;2023-03-16T10:16:39;9.50;;;3.60;;
70049;SDS011;57391;51.306;22.680;2023-03-16T10:19:36;9.30;;;3.50;;
70049;SDS011;57391;51.306;22.680;2023-03-16T10:27:48;8.70;;;2.20;;
70049;SDS011;57391;51.306;22.680;2023-03-16T10:30:34;6.50;;;2.10;;
70049;SDS011;57391;51.306;22.680;2023-03-16T10:36:13;6.40;;;2.00;;
70049;SDS011;57391;51.306;22.680;2023-03-16T10:38:58;6.80;;;2.30;;
70049;SDS011;57391;51.306;22.680;2023-03-16T10:41:34;6.00;;;2.10;;
70049;SDS011;57391;51.306;22.680;2023-03-16T10:44:20;6.80;;;2.40;;
70049;SDS011;57391;51.306;22.680;2023-03-16T10:47:03;7.00;;;2.50;;
70049;SDS011;57391;51.306;22.680;2023-03-16T10:49:37;7.60;;;2.50;;
70049;SDS011;57391;51.306;22.680;2023-03-16T10:52:29;6.10;;;2.70;;
70049;SDS011;57391;51.306;22.680;2023-03-16T10:55:29;7.60;;;2.40;;
70049;SDS011;57391;51.306;22.680;2023-03-16T10:58:01;8.10;;;2.90;;
70049;SDS011;57391;51.306;22.680;2023-03-16T11:00:37;6.30;;;2.70;;
70049;SDS011;57391;51.306;22.680;2023-03-16T11:03:37;7.70;;;2.70;;
70049;SDS011;57391;51.306;22.680;2023-03-16T11:06:18;7.90;;;2.90;;
70049;SDS011;57391;51.306;22.680;2023-03-16T11:09:11;6.20;;;2.40;;
70049;SDS011;57391;51.306;22.680;2023-03-16T11:11:47;10.90;;;3.20;;
70049;SDS011;57391;51.306;22.680;2023-03-16T11:14:20;11.00;;;3.80;;
70049;SDS011;57391;51.306;22.680;2023-03-16T11:17:02;7.30;;;2.90;;
70049;SDS011;57391;51.306;22.680;2023-03-16T11:20:02;8.00;;;2.70;;
70049;SDS011;57391;51.306;22.680;2023-03-16T11:22:44;6.40;;;2.40;;
70049;SDS011;57391;51.306;22.680;2023-03-16T11:25:33;6.00;;;2.70;;
70049;SDS011;57391;51.306;22.680;2023-03-16T11:28:16;7.40;;;2.60;;
70049;SDS011;57391;51.306;22.680;2023-03-16T11:31:17;6.70;;;2.40;;
70049;SDS011;57391;51.306;22.680;2023-03-16T11:33:54;6.30;;;2.70;;
70049;SDS011;57391;51.306;22.680;2023-03-16T11:36:41;5.80;;;2.30;;
70049;SDS011;57391;51.306;22.680;2023-03-16T11:39:42;7.90;;;2.30;;
70049;SDS011;57391;51.306;22.680;2023-03-16T11:58:09;5.80;;;2.00;;
70049;SDS011;57391;51.306;22.680;2023-03-16T12:03:55;8.20;;;2.50;;
70049;SDS011;57391;51.306;22.680;2023-03-16T12:07:25;5.00;;;2.00;;
70049;SDS011;57391;51.306;22.680;2023-03-16T12:16:49;5.00;;;1.80;;
70049;SDS011;57391;51.306;22.680;2023-03-16T12:19:39;4.90;;;1.60;;
70049;SDS011;57391;51.306;22.680;2023-03-16T12:22:29;5.50;;;1.80;;
70049;SDS011;57391;51.306;22.680;2023-03-16T12:25:21;4.10;;;1.60;;
70049;SDS011;57391;51.306;22.680;2023-03-16T12:27:55;3.80;;;1.80;;
70049;SDS011;57391;51.306;22.680;2023-03-16T12:39:06;4.90;;;1.70;;
70049;SDS011;57391;51.306;22.680;2023-03-16T12:42:12;3.50;;;1.20;;
70049;SDS011;57391;51.306;22.680;2023-03-16T12:45:03;5.10;;;1.50;;
70049;SDS011;57391;51.306;22.680;2023-03-16T12:50:29;6.20;;;2.30;;
70049;SDS011;57391;51.306;22.680;2023-03-16T12:52:58;5.50;;;2.00;;
70049;SDS011;57391;51.306;22.680;2023-03-16T12:58:09;3.40;;;1.40;;
70049;SDS011;57391;51.306;22.680;2023-03-16T13:00:41;3.60;;;1.50;;
70049;SDS011;57391;51.306;22.680;2023-03-16T13:03:15;3.70;;;1.60;;
70049;SDS011;57391;51.306;22.680;2023-03-16T13:05:57;4.10;;;1.50;;
70049;SDS011;57391;51.306;22.680;2023-03-16T13:08:45;5.50;;;2.50;;
70049;SDS011;57391;51.306;22.680;2023-03-16T13:11:17;6.80;;;1.90;;
70049;SDS011;57391;51.306;22.680;2023-03-16T13:13:52;5.30;;;1.90;;
70049;SDS011;57391;51.306;22.680;2023-03-16T13:16:34;5.50;;;1.80;;
70049;SDS011;57391;51.306;22.680;2023-03-16T13:19:26;4.10;;;1.80;;
70049;SDS011;57391;51.306;22.680;2023-03-16T13:25:10;3.40;;;1.40;;
70049;SDS011;57391;51.306;22.680;2023-03-16T13:27:47;4.20;;;1.50;;
70049;SDS011;57391;51.306;22.680;2023-03-16T13:30:24;4.70;;;1.60;;
70049;SDS011;57391;51.306;22.680;2023-03-16T13:35:50;4.00;;;1.70;;
70049;SDS011;57391;51.306;22.680;2023-03-16T13:38:23;3.80;;;1.50;;
70049;SDS011;57391;51.306;22.680;2023-03-16T13:40:57;3.10;;;1.60;;
70049;SDS011;57391;51.306;22.680;2023-03-16T13:43:38;6.90;;;2.00;;
70049;SDS011;57391;51.306;22.680;2023-03-16T13:46:18;4.10;;;1.80;;
70049;SDS011;57391;51.306;22.680;2023-03-16T13:48:51;4.40;;;1.80;;
70049;SDS011;57391;51.306;22.680;2023-03-16T13:51:20;4.40;;;1.60;;
70049;SDS011;57391;51.306;22.680;2023-03-16T13:53:49;7.20;;;2.40;;
70049;SDS011;57391;51.306;22.680;2023-03-16T13:56:25;6.40;;;2.10;;
70049;SDS011;57391;51.306;22.680;2023-03-16T13:58:56;5.30;;;1.70;;
70049;SDS011;57391;51.306;22.680;2023-03-16T14:01:27;15.80;;;6.50;;
70049;SDS011;57391;51.306;22.680;2023-03-16T14:04:02;12.10;;;5.10;;
70049;SDS011;57391;51.306;22.680;2023-03-16T14:06:34;10.20;;;4.50;;
70049;SDS011;57391;51.306;22.680;2023-03-16T14:09:04;11.20;;;4.20;;
70049;SDS011;57391;51.306;22.680;2023-03-16T14:11:38;11.70;;;5.70;;
70049;SDS011;57391;51.306;22.680;2023-03-16T14:14:14;10.80;;;5.20;;
70049;SDS011;57391;51.306;22.680;2023-03-16T14:16:48;10.40;;;4.60;;
70049;SDS011;57391;51.306;22.680;2023-03-16T14:19:21;10.20;;;4.30;;
70049;SDS011;57391;51.306;22.680;2023-03-16T14:22:01;5.60;;;2.30;;
70049;SDS011;57391;51.306;22.680;2023-03-16T14:24:32;7.00;;;2.50;;
70049;SDS011;57391;51.306;22.680;2023-03-16T14:27:30;7.60;;;2.80;;
70049;SDS011;57391;51.306;22.680;2023-03-16T14:30:18;14.70;;;5.80;;
70049;SDS011;57391;51.306;22.680;2023-03-16T14:33:05;27.90;;;11.60;;
70049;SDS011;57391;51.306;22.680;2023-03-16T14:35:54;28.10;;;12.80;;
70049;SDS011;57391;51.306;22.680;2023-03-16T14:38:31;15.10;;;6.90;;
70049;SDS011;57391;51.306;22.680;2023-03-16T14:41:05;9.50;;;4.40;;
70049;SDS011;57391;51.306;22.680;2023-03-16T14:43:56;12.00;;;6.30;;
70049;SDS011;57391;51.306;22.680;2023-03-16T14:46:41;15.50;;;5.10;;
70049;SDS011;57391;51.306;22.680;2023-03-16T14:51:57;7.80;;;3.00;;
70049;SDS011;57391;51.306;22.680;2023-03-16T14:54:41;7.90;;;3.10;;
70049;SDS011;57391;51.306;22.680;2023-03-16T14:57:15;21.50;;;8.60;;
70049;SDS011;57391;51.306;22.680;2023-03-16T14:59:43;12.20;;;4.50;;
70049;SDS011;57391;51.306;22.680;2023-03-16T15:02:24;8.60;;;2.50;;
70049;SDS011;57391;51.306;22.680;2023-03-16T15:04:55;6.60;;;2.50;;
70049;SDS011;57391;51.306;22.680;2023-03-16T15:12:41;4.10;;;2.10;;
70049;SDS011;57391;51.306;22.680;2023-03-16T15:15:19;4.50;;;1.90;;
70049;SDS011;57391;51.306;22.680;2023-03-16T15:17:50;6.20;;;2.60;;
70049;SDS011;57391;51.306;22.680;2023-03-16T15:20:21;6.60;;;2.40;;
70049;SDS011;57391;51.306;22.680;2023-03-16T15:22:52;6.20;;;2.90;;
70049;SDS011;57391;51.306;22.680;2023-03-16T15:25:42;8.10;;;2.60;;
70049;SDS011;57391;51.306;22.680;2023-03-16T15:28:18;7.40;;;2.70;;
70049;SDS011;57391;51.306;22.680;2023-03-16T15:30:52;10.30;;;3.50;;
70049;SDS011;57391;51.306;22.680;2023-03-16T15:33:24;12.00;;;3.10;;
70049;SDS011;57391;51.306;22.680;2023-03-16T15:35:55;8.00;;;3.20;;
70049;SDS011;57391;51.306;22.680;2023-03-16T15:38:29;14.40;;;4.90;;
70049;SDS011;57391;51.306;22.680;2023-03-16T15:40:59;13.20;;;4.50;;
70049;SDS011;57391;51.306;22.680;2023-03-16T15:43:29;12.50;;;4.70;;
70049;SDS011;57391;51.306;22.680;2023-03-16T15:45:58;11.20;;;4.70;;
70049;SDS011;57391;51.306;22.680;2023-03-16T15:48:27;13.00;;;5.00;;
70049;SDS011;57391;51.306;22.680;2023-03-16T15:50:59;17.60;;;5.10;;
70049;SDS011;57391;51.306;22.680;2023-03-16T15:53:52;15.70;;;5.10;;
70049;SDS011;57391;51.306;22.680;2023-03-16T15:56:25;15.10;;;5.20;;
70049;SDS011;57391;51.306;22.680;2023-03-16T15:59:01;20.30;;;7.20;;
70049;SDS011;57391;51.306;22.680;2023-03-16T16:01:44;26.80;;;10.20;;
70049;SDS011;57391;51.306;22.680;2023-03-16T16:04:16;24.40;;;9.30;;
70049;SDS011;57391;51.306;22.680;2023-03-16T16:06:55;21.30;;;7.40;;
70049;SDS011;57391;51.306;22.680;2023-03-16T16:09:23;12.50;;;4.60;;
70049;SDS011;57391;51.306;22.680;2023-03-16T16:11:51;9.80;;;4.70;;
70049;SDS011;57391;51.306;22.680;2023-03-16T16:14:23;11.30;;;5.40;;
70049;SDS011;57391;51.306;22.680;2023-03-16T16:16:52;10.90;;;5.00;;
70049;SDS011;57391;51.306;22.680;2023-03-16T16:19:20;14.90;;;6.00;;
70049;SDS011;57391;51.306;22.680;2023-03-16T16:21:47;11.90;;;5.00;;
70049;SDS011;57391;51.306;22.680;2023-03-16T16:24:14;13.60;;;5.10;;
70049;SDS011;57391;51.306;22.680;2023-03-16T16:26:45;13.80;;;5.20;;